Time;durP1;ratioP1;P1;durP2;ratioP2;P2;SDS_P1;SDS_P2;PMS_P1;PMS_P2;Temp;Humidity;BMP_temperature;BMP_pressure;BME280_temperature;BME280_humidity;BME280_pressure;Samples;Min_cycle;Max_cycle;Signal;HPM_P1;HPM_P2
2022/08/14 00:00:44;;;;;;;9.77;7.95;;;19.00;99.90;;;;;;5104959;28;20048;-64
2022/08/14 00:03:24;;;;;;;12.50;8.20;;;19.00;99.90;;;;;;5102002;28;20051;-64
2022/08/14 00:05:51;;;;;;;9.55;8.20;;;18.90;99.90;;;;;;5102114;28;20504;-64
2022/08/14 00:08:17;;;;;;;13.77;8.95;;;18.80;99.90;;;;;;5096947;28;20059;-64
2022/08/14 00:10:43;;;;;;;15.85;8.25;;;18.80;99.90;;;;;;5104701;28;20115;-64
2022/08/14 00:13:09;;;;;;;10.45;8.52;;;18.80;99.90;;;;;;5099874;28;20039;-64
2022/08/14 00:15:39;;;;;;;10.85;9.13;;;18.70;99.90;;;;;;5092658;28;20044;-64
2022/08/14 00:18:06;;;;;;;10.25;8.60;;;18.70;99.90;;;;;;5096306;28;20053;-64
2022/08/14 00:20:34;;;;;;;10.48;9.38;;;18.60;99.90;;;;;;5100404;28;20040;-64
2022/08/14 00:23:00;;;;;;;12.18;9.02;;;18.60;99.90;;;;;;5099430;28;20121;-64
2022/08/14 00:25:27;;;;;;;10.90;9.15;;;18.60;99.90;;;;;;5097630;28;20064;-64
2022/08/14 00:27:53;;;;;;;11.57;8.32;;;18.60;99.90;;;;;;5096509;28;20040;-64
2022/08/14 00:30:19;;;;;;;9.73;8.73;;;18.50;99.90;;;;;;5095254;28;20613;-64
2022/08/14 00:32:45;;;;;;;14.63;9.02;;;18.50;99.90;;;;;;5096701;28;20057;-64
2022/08/14 00:35:11;;;;;;;9.70;8.80;;;18.40;99.90;;;;;;5087429;28;20092;-64
2022/08/14 00:37:39;;;;;;;11.88;8.73;;;18.40;99.90;;;;;;5090989;28;20064;-65
2022/08/14 00:40:05;;;;;;;10.20;9.20;;;18.40;99.90;;;;;;5094750;28;20066;-64
2022/08/14 00:42:31;;;;;;;11.40;10.20;;;18.30;99.90;;;;;;5100261;28;20574;-64
2022/08/14 00:44:57;;;;;;;10.38;9.30;;;18.30;99.90;;;;;;5088505;28;20045;-64
2022/08/14 00:47:23;;;;;;;10.95;9.82;;;18.30;99.90;;;;;;5091622;28;20052;-64
2022/08/14 00:49:57;;;;;;;10.68;9.63;;;18.20;99.90;;;;;;5074943;28;20044;-64
2022/08/14 00:52:24;;;;;;;15.25;10.00;;;18.20;99.90;;;;;;5092253;28;20090;-64
2022/08/14 00:54:55;;;;;;;11.30;9.13;;;18.20;99.90;;;;;;5102461;28;20075;-64
2022/08/14 00:57:23;;;;;;;11.85;9.30;;;18.30;99.90;;;;;;5090931;28;20055;-64
2022/08/14 00:59:50;;;;;;;11.00;8.82;;;18.20;99.90;;;;;;5099990;28;20077;-64
2022/08/14 01:02:19;;;;;;;10.38;9.15;;;18.10;99.90;;;;;;5097107;28;20400;-64
2022/08/14 01:04:47;;;;;;;11.07;9.32;;;18.00;99.90;;;;;;5076672;28;20048;-64
2022/08/14 01:07:18;;;;;;;11.95;9.63;;;18.00;99.90;;;;;;5098215;28;20056;-64
2022/08/14 01:09:49;;;;;;;13.32;10.73;;;17.90;99.90;;;;;;5094680;28;20052;-64
2022/08/14 01:12:16;;;;;;;10.30;9.25;;;17.90;99.90;;;;;;5091202;28;20071;-64
2022/08/14 01:14:42;;;;;;;11.00;9.90;;;17.80;99.90;;;;;;5103612;28;20036;-64
2022/08/14 01:17:08;;;;;;;12.35;11.15;;;17.80;99.90;;;;;;5091120;28;20040;-64
2022/08/14 01:22:18;;;;;;;11.38;10.18;;;17.80;99.90;;;;;;5096955;28;20059;-64
2022/08/14 01:24:44;;;;;;;10.95;9.52;;;17.80;99.90;;;;;;5101832;28;20036;-64
2022/08/14 01:27:21;;;;;;;11.60;9.65;;;17.90;99.90;;;;;;5089926;28;20052;-64
2022/08/14 01:29:49;;;;;;;11.00;9.77;;;17.80;99.90;;;;;;5087652;28;20048;-64
2022/08/14 01:32:18;;;;;;;12.07;10.50;;;17.70;99.90;;;;;;5064941;28;20079;-64
2022/08/14 01:34:54;;;;;;;11.57;10.40;;;17.70;99.90;;;;;;5076759;28;20037;-64
2022/08/14 01:37:24;;;;;;;12.95;11.65;;;17.70;99.90;;;;;;5076494;28;20071;-64
2022/08/14 01:39:53;;;;;;;11.80;10.65;;;17.70;99.90;;;;;;5059784;28;20060;-64
2022/08/14 01:42:19;;;;;;;12.45;11.20;;;17.60;99.90;;;;;;5062699;28;20119;-64
2022/08/14 01:44:51;;;;;;;11.80;10.48;;;17.70;99.90;;;;;;5048095;28;20049;-64
2022/08/14 01:47:17;;;;;;;11.90;9.52;;;17.70;99.90;;;;;;5075299;28;20045;-64
2022/08/14 01:49:43;;;;;;;11.68;10.20;;;17.60;99.90;;;;;;5063998;28;20182;-64
2022/08/14 01:52:09;;;;;;;12.30;11.05;;;17.50;99.90;;;;;;5078535;28;20128;-64
2022/08/14 01:54:35;;;;;;;12.60;11.40;;;17.60;99.90;;;;;;5084994;28;20141;-64
2022/08/14 01:57:01;;;;;;;13.00;11.27;;;17.60;99.90;;;;;;5060346;28;20045;-64
2022/08/14 01:59:31;;;;;;;13.20;11.13;;;17.60;99.90;;;;;;5061676;28;20085;-64
2022/08/14 02:02:02;;;;;;;17.13;12.05;;;17.70;99.90;;;;;;5063884;28;20048;-64
2022/08/14 02:04:33;;;;;;;13.95;12.32;;;17.80;99.90;;;;;;5066078;28;20098;-64
2022/08/14 02:07:01;;;;;;;14.23;11.50;;;17.80;99.90;;;;;;5050570;28;20098;-64
2022/08/14 02:09:34;;;;;;;12.88;11.50;;;17.80;99.90;;;;;;5059243;28;20570;-64
2022/08/14 02:12:01;;;;;;;11.82;10.60;;;17.70;99.90;;;;;;5076740;28;20056;-64
2022/08/14 02:14:28;;;;;;;15.57;11.85;;;17.60;99.90;;;;;;5071735;28;20049;-64
2022/08/14 02:16:56;;;;;;;14.23;11.38;;;17.50;99.90;;;;;;5060602;28;20036;-64
2022/08/14 02:19:26;;;;;;;13.32;11.93;;;17.40;99.90;;;;;;5056460;28;20056;-64
2022/08/14 02:21:54;;;;;;;13.57;12.18;;;17.40;99.90;;;;;;5047241;28;20045;-64
2022/08/14 02:24:24;;;;;;;13.45;11.80;;;17.30;99.90;;;;;;5047899;28;20074;-64
2022/08/14 02:26:51;;;;;;;12.98;11.60;;;17.30;99.90;;;;;;5052283;28;20128;-64
2022/08/14 02:29:22;;;;;;;11.60;10.38;;;17.20;99.90;;;;;;5076550;28;20049;-64
2022/08/14 02:31:51;;;;;;;13.80;11.27;;;17.20;99.90;;;;;;5093115;28;20109;-64
2022/08/14 02:34:21;;;;;;;13.73;11.33;;;17.10;99.90;;;;;;5074450;28;20056;-64
2022/08/14 02:36:50;;;;;;;13.15;11.43;;;17.10;99.90;;;;;;5078361;28;20516;-64
2022/08/14 02:39:16;;;;;;;14.23;11.98;;;17.10;99.90;;;;;;5091831;28;20040;-64
2022/08/14 02:41:43;;;;;;;11.20;9.50;;;17.10;99.90;;;;;;5084240;28;20503;-64
2022/08/14 02:44:10;;;;;;;12.40;11.10;;;17.10;99.90;;;;;;5075155;28;20111;-64
2022/08/14 02:46:38;;;;;;;16.75;11.82;;;17.00;99.90;;;;;;5087571;28;20047;-64
2022/08/14 02:49:05;;;;;;;14.18;12.60;;;17.10;99.90;;;;;;5076332;28;20076;-64
2022/08/14 02:51:33;;;;;;;12.85;11.48;;;17.20;99.90;;;;;;5076222;28;20044;-64
2022/08/14 02:54:00;;;;;;;15.45;11.93;;;17.30;99.90;;;;;;5077080;28;20055;-64
2022/08/14 02:56:27;;;;;;;17.52;13.15;;;17.40;99.90;;;;;;5075507;28;20056;-64
2022/08/14 02:58:55;;;;;;;15.10;12.38;;;17.50;99.90;;;;;;5070636;28;20048;-64
2022/08/14 03:01:23;;;;;;;13.52;11.27;;;17.50;99.90;;;;;;5105487;28;20040;-64
2022/08/14 03:03:49;;;;;;;13.50;12.10;;;17.40;99.90;;;;;;5092074;28;20040;-64
2022/08/14 03:06:19;;;;;;;14.50;12.18;;;17.30;99.90;;;;;;5069428;28;20045;-64
2022/08/14 03:08:47;;;;;;;14.18;12.75;;;17.20;99.90;;;;;;5094670;28;20084;-64
2022/08/14 03:11:13;;;;;;;13.65;12.32;;;17.20;99.90;;;;;;5095358;28;20085;-64
2022/08/14 03:13:46;;;;;;;12.70;11.48;;;17.20;99.90;;;;;;5077702;28;20083;-64
2022/08/14 03:16:14;;;;;;;12.25;10.25;;;17.20;99.90;;;;;;5102516;28;20048;-64
2022/08/14 03:18:43;;;;;;;12.90;11.48;;;17.10;99.90;;;;;;5078716;28;20072;-64
2022/08/14 03:21:12;;;;;;;17.50;13.77;;;17.00;99.90;;;;;;5098156;28;20053;-64
2022/08/14 03:23:39;;;;;;;15.88;13.38;;;17.00;99.90;;;;;;5083053;28;20048;-64
2022/08/14 03:26:14;;;;;;;14.00;12.63;;;17.10;99.90;;;;;;5074140;28;20503;-64
2022/08/14 03:28:43;;;;;;;14.32;12.00;;;17.10;99.90;;;;;;5082548;28;20052;-64
2022/08/14 03:31:10;;;;;;;15.40;12.38;;;17.00;99.90;;;;;;5095945;28;20056;-64
2022/08/14 03:33:39;;;;;;;15.02;13.45;;;17.00;99.90;;;;;;5082221;28;20393;-64
2022/08/14 03:36:12;;;;;;;15.60;14.00;;;16.90;99.90;;;;;;5102796;28;20071;-64
2022/08/14 03:38:42;;;;;;;15.45;12.35;;;16.90;99.90;;;;;;5106052;28;20103;-64
2022/08/14 03:41:15;;;;;;;15.48;13.10;;;16.90;99.90;;;;;;5098656;28;20585;-64
2022/08/14 03:43:43;;;;;;;14.98;13.40;;;16.80;99.90;;;;;;5076394;28;20049;-64
2022/08/14 03:46:10;;;;;;;15.52;13.65;;;16.80;99.90;;;;;;5102929;28;20052;-64
2022/08/14 03:48:38;;;;;;;18.25;15.82;;;16.70;99.90;;;;;;5092213;28;20115;-64
2022/08/14 03:51:07;;;;;;;16.63;14.75;;;16.70;99.90;;;;;;5078545;28;20051;-64
2022/08/14 03:53:36;;;;;;;15.13;13.52;;;16.70;99.90;;;;;;5101024;28;20123;-64
2022/08/14 03:56:06;;;;;;;;;;;16.70;99.90;;;;;;5103845;28;20072;-64
2022/08/14 03:58:32;;;;;;;15.23;12.20;;;16.60;99.90;;;;;;5078699;28;19988;-64
2022/08/14 04:00:59;;;;;;;16.38;13.88;;;16.60;99.90;;;;;;5084843;28;20063;-64
2022/08/14 04:03:25;;;;;;;18.60;15.40;;;16.60;99.90;;;;;;5093875;28;20051;-64
2022/08/14 04:05:54;;;;;;;19.05;16.83;;;16.60;99.90;;;;;;5092626;28;20044;-64
2022/08/14 04:08:20;;;;;;;17.45;15.60;;;16.60;99.90;;;;;;5097277;28;20053;-64
2022/08/14 04:10:46;;;;;;;16.13;14.43;;;16.60;99.90;;;;;;5105950;28;20103;-64
2022/08/14 04:13:17;;;;;;;14.13;12.63;;;16.60;99.90;;;;;;5081513;28;20099;-64
2022/08/14 04:15:47;;;;;;;15.48;13.00;;;16.60;99.90;;;;;;5080487;28;20501;-64
2022/08/14 04:18:13;;;;;;;16.17;14.15;;;16.50;99.90;;;;;;5080294;28;20047;-64
2022/08/14 04:20:41;;;;;;;15.25;13.65;;;16.40;99.90;;;;;;5094100;28;20251;-64
2022/08/14 04:23:08;;;;;;;25.13;14.77;;;16.50;99.90;;;;;;5071983;28;20488;-64
2022/08/14 04:25:35;;;;;;;16.35;14.70;;;16.40;99.90;;;;;;5077423;28;20048;-64
2022/08/14 04:28:02;;;;;;;16.95;13.95;;;16.50;99.90;;;;;;5085596;28;20052;-64
2022/08/14 04:30:29;;;;;;;16.85;15.15;;;16.60;99.90;;;;;;5067022;28;20448;-65
2022/08/14 04:32:56;;;;;;;17.33;15.10;;;16.60;99.90;;;;;;5083651;28;20045;-64
2022/08/14 04:35:22;;;;;;;16.83;15.05;;;16.60;99.90;;;;;;5071365;28;20044;-64
2022/08/14 04:43:35;;;;;;;17.77;15.93;;;16.80;99.90;;;;;;5093126;28;20063;-64
2022/08/14 04:46:06;;;;;;;19.85;14.85;;;16.80;99.90;;;;;;5084959;28;20100;-64
2022/08/14 04:48:32;;;;;;;17.40;15.05;;;16.90;99.90;;;;;;5078266;28;20052;-64
2022/08/14 04:50:59;;;;;;;19.77;15.50;;;17.00;99.90;;;;;;5083649;28;20044;-64
2022/08/14 04:53:30;;;;;;;17.65;15.70;;;17.00;99.90;;;;;;5074102;28;20048;-64
2022/08/14 04:55:56;;;;;;;17.67;15.65;;;17.00;99.90;;;;;;5082547;28;20130;-64
2022/08/14 04:58:28;;;;;;;19.15;16.88;;;17.10;99.90;;;;;;5102235;28;20500;-64
2022/08/14 05:00:55;;;;;;;18.55;16.65;;;17.10;99.90;;;;;;5072398;28;20055;-64
2022/08/14 05:03:22;;;;;;;18.23;16.35;;;17.10;99.90;;;;;;5077866;28;20040;-64
2022/08/14 05:05:53;;;;;;;19.73;17.40;;;17.20;99.90;;;;;;5056284;28;20049;-64
2022/08/14 05:08:19;;;;;;;18.45;15.82;;;17.30;99.90;;;;;;5068016;28;20518;-64
2022/08/14 05:10:51;;;;;;;19.60;17.17;;;17.30;99.90;;;;;;5092995;28;20527;-64
2022/08/14 05:13:22;;;;;;;18.77;16.83;;;17.40;99.90;;;;;;5101867;28;20070;-64
2022/08/14 05:15:48;;;;;;;18.73;16.77;;;17.50;99.90;;;;;;5093251;28;20044;-64
2022/08/14 05:18:30;;;;;;;17.95;15.93;;;17.70;99.90;;;;;;5090764;28;20532;-64
2022/08/14 05:20:58;;;;;;;18.63;16.50;;;17.80;99.90;;;;;;5099139;28;20094;-64
2022/08/14 05:23:29;;;;;;;19.25;17.25;;;17.90;99.90;;;;;;5094142;28;20040;-64
2022/08/14 05:26:00;;;;;;;18.33;16.38;;;18.00;99.90;;;;;;5082229;28;20053;-64
2022/08/14 05:28:28;;;;;;;21.10;18.23;;;18.10;99.90;;;;;;5106075;28;20070;-64
2022/08/14 05:30:56;;;;;;;21.05;18.95;;;18.20;99.90;;;;;;5101690;28;20060;-64
2022/08/14 05:33:27;;;;;;;19.17;17.27;;;18.30;99.90;;;;;;5077120;28;20053;-64
2022/08/14 05:35:59;;;;;;;26.27;18.55;;;18.40;99.90;;;;;;5086329;28;20079;-64
2022/08/14 05:38:34;;;;;;;21.80;19.55;;;18.50;99.90;;;;;;5100791;28;20050;-64
2022/08/14 05:41:04;;;;;;;20.52;18.52;;;18.50;99.90;;;;;;5089733;28;20044;-64
2022/08/14 05:43:31;;;;;;;23.42;20.00;;;18.60;99.90;;;;;;5095004;28;20032;-64
2022/08/14 05:45:58;;;;;;;25.13;20.65;;;18.70;99.90;;;;;;5096865;28;20040;-64
2022/08/14 05:48:24;;;;;;;23.35;20.95;;;18.70;99.90;;;;;;5078344;28;20500;-64
2022/08/14 05:50:53;;;;;;;21.88;19.67;;;18.70;99.90;;;;;;5100842;28;20052;-64
2022/08/14 05:53:23;;;;;;;23.80;20.63;;;18.70;99.90;;;;;;5075838;28;20808;-64
2022/08/14 05:55:49;;;;;;;25.50;19.60;;;18.80;99.90;;;;;;5090546;28;20167;-64
2022/08/14 05:58:15;;;;;;;24.30;20.42;;;18.80;99.90;;;;;;5088075;28;20044;-64
2022/08/14 06:00:43;;;;;;;22.05;19.67;;;18.90;99.90;;;;;;5088413;28;20072;-64
2022/08/14 06:03:16;;;;;;;24.85;22.25;;;19.00;99.90;;;;;;5095371;28;20107;-64
2022/08/14 06:05:43;;;;;;;26.73;20.48;;;19.00;99.90;;;;;;5083380;28;20059;-64
2022/08/14 06:08:26;;;;;;;24.10;20.65;;;19.10;99.90;;;;;;5074188;28;20055;-64
2022/08/14 06:10:54;;;;;;;22.35;19.73;;;19.10;99.90;;;;;;5098397;28;20100;-64
2022/08/14 06:13:20;;;;;;;22.50;20.10;;;19.20;99.90;;;;;;5097050;28;20052;-64
2022/08/14 06:15:47;;;;;;;25.10;20.23;;;19.40;99.90;;;;;;5075853;28;20048;-64
2022/08/14 06:18:14;;;;;;;21.60;19.40;;;19.50;99.90;;;;;;5082761;28;20127;-64
2022/08/14 06:20:40;;;;;;;20.73;18.52;;;19.60;99.90;;;;;;5078523;28;20071;-64
2022/08/14 06:23:06;;;;;;;21.17;18.90;;;19.70;99.90;;;;;;5061945;28;20036;-64
2022/08/14 06:25:32;;;;;;;21.15;18.20;;;19.80;99.90;;;;;;5081675;28;20055;-64
2022/08/14 06:27:57;;;;;;;23.05;18.38;;;20.00;99.90;;;;;;5099130;28;20039;-64
2022/08/14 06:30:26;;;;;;;19.02;17.02;;;20.00;99.90;;;;;;5073606;28;20120;-64
2022/08/14 06:32:52;;;;;;;19.02;16.70;;;20.10;99.90;;;;;;5099087;28;20039;-64
2022/08/14 06:35:22;;;;;;;19.77;16.10;;;20.30;99.90;;;;;;5080556;28;20127;-64
2022/08/14 06:37:49;;;;;;;;;;;20.30;99.90;;;;;;5074765;28;20074;-64
2022/08/14 06:40:17;;;;;;;19.48;15.35;;;20.40;99.90;;;;;;5075949;28;20391;-64
2022/08/14 06:42:43;;;;;;;16.80;15.20;;;20.50;99.90;;;;;;5099647;28;20451;-64
2022/08/14 06:45:09;;;;;;;17.80;15.90;;;20.60;99.90;;;;;;5080084;28;20260;-65
2022/08/14 06:47:37;;;;;;;17.25;14.07;;;20.70;99.90;;;;;;5084292;28;20040;-65
2022/08/14 06:50:05;;;;;;;19.52;14.95;;;20.70;99.90;;;;;;5050394;28;20488;-65
2022/08/14 06:52:31;;;;;;;17.27;15.43;;;20.80;99.90;;;;;;5074814;28;20052;-64
2022/08/14 06:54:57;;;;;;;20.33;15.15;;;20.90;99.90;;;;;;5094337;28;20094;-65
2022/08/14 06:57:23;;;;;;;16.35;14.65;;;21.00;99.90;;;;;;5074259;28;20049;-65
2022/08/14 06:59:49;;;;;;;17.83;15.32;;;21.10;99.90;;;;;;5080219;28;20047;-65
2022/08/14 07:07:43;;;;;;;14.95;13.48;;;21.30;99.90;;;;;;5078223;28;20538;-65
2022/08/14 07:10:10;;;;;;;19.75;13.68;;;21.40;99.90;;;;;;5079869;28;20056;-65
2022/08/14 07:12:36;;;;;;;15.07;13.73;;;21.50;99.90;;;;;;5092843;28;20446;-65
2022/08/14 07:15:02;;;;;;;14.82;13.43;;;21.50;99.90;;;;;;5074792;28;20432;-65
2022/08/14 07:17:28;;;;;;;14.65;13.18;;;21.60;99.90;;;;;;5072994;28;20048;-65
2022/08/14 07:19:54;;;;;;;14.75;12.85;;;21.70;99.90;;;;;;5078341;28;20097;-65
2022/08/14 07:22:20;;;;;;;16.35;12.68;;;21.80;99.90;;;;;;5097024;28;20055;-65
2022/08/14 07:24:46;;;;;;;12.98;11.65;;;21.90;99.90;;;;;;5083068;28;20040;-65
2022/08/14 07:27:11;;;;;;;16.40;12.18;;;22.00;99.90;;;;;;5082025;28;20087;-65
2022/08/14 07:29:37;;;;;;;15.77;11.95;;;22.10;99.90;;;;;;5099018;28;20033;-65
2022/08/14 07:32:03;;;;;;;13.10;11.80;;;22.10;99.90;;;;;;5085557;28;20053;-65
2022/08/14 07:34:30;;;;;;;12.10;10.68;;;22.20;99.90;;;;;;5057108;28;20053;-66
2022/08/14 07:36:55;;;;;;;12.95;10.32;;;22.30;99.90;;;;;;5061464;28;20052;-65
2022/08/14 07:39:21;;;;;;;13.80;11.00;;;22.30;99.90;;;;;;5076711;28;20044;-63
2022/08/14 07:41:47;;;;;;;11.23;10.15;;;22.30;99.90;;;;;;5083795;28;20106;-64
2022/08/14 07:44:13;;;;;;;13.40;11.43;;;22.40;99.90;;;;;;5080454;28;20041;-64
2022/08/14 07:46:41;;;;;;;13.20;11.82;;;22.50;99.90;;;;;;5079802;28;20189;-64
2022/08/14 07:49:08;;;;;;;13.10;10.77;;;22.50;99.90;;;;;;5052219;28;20049;-64
2022/08/14 07:51:34;;;;;;;11.38;10.25;;;22.60;99.90;;;;;;5058727;28;20052;-64
2022/08/14 07:54:01;;;;;;;13.30;10.10;;;22.60;99.90;;;;;;5061493;28;20082;-64
2022/08/14 07:56:27;;;;;;;11.50;10.40;;;22.70;99.90;;;;;;5082573;28;20051;-64
2022/08/14 07:58:53;;;;;;;12.25;10.93;;;22.80;99.90;;;;;;5054791;28;20440;-64
2022/08/14 08:01:19;;;;;;;10.07;8.93;;;22.90;99.90;;;;;;5083665;28;20216;-64
2022/08/14 08:03:47;;;;;;;11.07;9.55;;;23.00;99.90;;;;;;5087584;28;20044;-64
2022/08/14 08:06:15;;;;;;;12.20;10.93;;;23.10;99.90;;;;;;5037584;28;20060;-64
2022/08/14 08:08:42;;;;;;;11.80;10.63;;;23.10;99.90;;;;;;5066108;28;20113;-65
2022/08/14 08:11:10;;;;;;;11.30;10.20;;;23.20;99.90;;;;;;5048106;28;20052;-64
2022/08/14 08:13:41;;;;;;;10.57;9.43;;;23.20;99.90;;;;;;5052504;28;20056;-69
2022/08/14 08:16:07;;;;;;;10.77;9.77;;;23.30;99.90;;;;;;5042229;28;20116;-64
2022/08/14 08:18:33;;;;;;;9.98;8.60;;;23.40;99.90;;;;;;5048971;28;20060;-65
2022/08/14 08:20:59;;;;;;;11.07;9.98;;;23.50;99.90;;;;;;5058869;28;20066;-65
2022/08/14 08:23:28;;;;;;;10.25;9.32;;;23.60;99.90;;;;;;5057243;28;20049;-65
2022/08/14 08:25:54;;;;;;;10.68;9.57;;;23.70;99.90;;;;;;5052214;28;20053;-65
2022/08/14 08:28:30;;;;;;;12.07;8.93;;;23.80;99.90;;;;;;5061164;28;20041;-65
2022/08/14 08:30:58;;;;;;;9.70;8.68;;;23.90;99.90;;;;;;5050710;28;20167;-66
2022/08/14 08:33:27;;;;;;;10.50;8.30;;;23.90;99.90;;;;;;5075174;28;20120;-65
2022/08/14 08:35:56;;;;;;;9.30;8.10;;;23.90;99.90;;;;;;5062068;28;20297;-66
2022/08/14 08:38:23;;;;;;;10.18;8.95;;;24.10;99.90;;;;;;5076321;28;20036;-66
2022/08/14 08:40:52;;;;;;;11.40;9.55;;;24.00;99.90;;;;;;5064332;28;20083;-66
2022/08/14 08:43:27;;;;;;;12.60;9.93;;;24.10;99.90;;;;;;5072570;28;20040;-65
2022/08/14 08:45:57;;;;;;;9.45;8.55;;;24.10;99.90;;;;;;5079964;28;20048;-66
2022/08/14 08:48:32;;;;;;;9.98;8.82;;;24.10;99.90;;;;;;5077468;28;20063;-66
2022/08/14 08:51:01;;;;;;;10.68;8.75;;;24.20;99.90;;;;;;5069393;28;20048;-66
2022/08/14 08:53:34;;;;;;;9.63;8.38;;;24.30;99.90;;;;;;5076914;28;20040;-66
2022/08/14 08:56:00;;;;;;;11.18;9.20;;;24.50;99.90;;;;;;5059109;28;20048;-67
2022/08/14 08:58:26;;;;;;;12.10;9.60;;;24.50;99.90;;;;;;5068945;28;20496;-67
2022/08/14 09:01:00;;;;;;;12.55;8.95;;;24.60;99.90;;;;;;5060781;28;20044;-66
2022/08/14 09:03:27;;;;;;;11.55;8.57;;;24.60;99.90;;;;;;5073401;28;20840;-67
2022/08/14 09:05:56;;;;;;;9.10;8.20;;;24.70;99.90;;;;;;5063900;28;20191;-67
2022/08/14 09:08:28;;;;;;;8.68;7.78;;;24.80;99.90;;;;;;5094853;28;20249;-67
2022/08/14 09:10:55;;;;;;;10.75;9.02;;;24.80;99.90;;;;;;5062461;28;20525;-66
2022/08/14 09:13:23;;;;;;;9.68;8.07;;;24.80;99.90;;;;;;5067672;28;20056;-67
2022/08/14 09:15:49;;;;;;;11.40;8.20;;;24.90;99.90;;;;;;5052758;28;20048;-67
2022/08/14 09:18:18;;;;;;;9.20;7.70;;;25.00;99.90;;;;;;5085063;28;20107;-67
2022/08/14 09:20:46;;;;;;;9.77;8.80;;;25.00;99.90;;;;;;5058135;28;20120;-67
2022/08/14 09:23:13;;;;;;;15.00;11.40;;;25.10;99.90;;;;;;5068751;28;20059;-67
2022/08/14 09:25:43;;;;;;;10.65;8.50;;;25.20;99.90;;;;;;5059240;28;20041;-67
2022/08/14 09:28:09;;;;;;;9.82;7.63;;;25.20;99.90;;;;;;5053091;28;20186;-66
2022/08/14 09:30:39;;;;;;;8.85;7.95;;;25.40;99.90;;;;;;5050167;28;20041;-66
2022/08/14 09:33:42;;;;;;;10.20;7.72;;;25.40;99.90;;;;;;5070901;28;20056;-66
2022/08/14 09:36:28;;;;;;;7.88;7.05;;;25.50;99.90;;;;;;5051325;28;20048;-66
2022/08/14 09:39:26;;;;;;;8.10;7.30;;;25.40;99.90;;;;;;5060157;28;20071;-67
2022/08/14 09:41:58;;;;;;;8.50;7.43;;;25.60;99.90;;;;;;5064747;28;20055;-67
2022/08/14 09:44:55;;;;;;;8.50;7.55;;;25.60;99.90;;;;;;5067364;28;20068;-67
2022/08/14 09:47:46;;;;;;;11.43;7.72;;;25.60;99.90;;;;;;5060877;28;20205;-67
2022/08/14 09:50:27;;;;;;;8.63;7.53;;;25.90;99.90;;;;;;5055670;28;20049;-67
2022/08/14 09:53:01;;;;;;;8.55;7.65;;;25.80;99.90;;;;;;5072996;28;20060;-66
2022/08/14 09:55:32;;;;;;;8.95;8.05;;;25.80;99.90;;;;;;5065525;28;20052;-67
2022/08/14 09:58:14;;;;;;;8.27;7.45;;;25.80;99.90;;;;;;5054165;28;20076;-67
2022/08/14 10:00:52;;;;;;;9.13;7.13;;;25.90;99.90;;;;;;5054469;28;20180;-67
2022/08/14 10:03:32;;;;;;;8.73;7.63;;;25.90;99.90;;;;;;5052918;28;20103;-67
2022/08/14 10:06:08;;;;;;;8.55;7.65;;;26.00;99.90;;;;;;5057995;28;20375;-67
2022/08/14 10:09:02;;;;;;;7.70;6.93;;;26.10;99.90;;;;;;5063990;28;20504;-67
2022/08/14 10:11:39;;;;;;;8.23;7.32;;;26.10;99.90;;;;;;5049589;28;20119;-67
2022/08/14 10:14:19;;;;;;;7.95;7.15;;;26.30;99.90;;;;;;5074903;28;20528;-67
2022/08/14 10:16:49;;;;;;;9.18;8.25;;;26.50;99.90;;;;;;5067161;28;20048;-66
2022/08/14 10:19:17;;;;;;;8.68;7.85;;;26.50;99.90;;;;;;5077284;28;20046;-67
2022/08/14 10:21:56;;;;;;;9.00;8.02;;;26.70;99.90;;;;;;5061454;28;20083;-66
2022/08/14 10:24:38;;;;;;;8.80;7.82;;;26.50;99.90;;;;;;5067470;28;20067;-67
2022/08/14 10:27:15;;;;;;;8.98;7.45;;;26.60;99.90;;;;;;5057147;28;20631;-67
2022/08/14 10:29:42;;;;;;;8.98;8.05;;;26.50;99.90;;;;;;5075746;28;20051;-67
2022/08/14 10:32:10;;;;;;;8.88;8.07;;;26.70;99.90;;;;;;5077689;28;20113;-66
2022/08/14 10:34:38;;;;;;;9.25;8.32;;;26.70;99.90;;;;;;5073664;28;20090;-67
2022/08/14 10:37:06;;;;;;;8.65;7.68;;;26.90;99.90;;;;;;5048308;28;20055;-67
2022/08/14 10:39:35;;;;;;;10.03;7.63;;;26.80;99.90;;;;;;5058475;28;20052;-67
2022/08/14 10:42:04;;;;;;;9.90;8.10;;;27.00;99.90;;;;;;5076334;28;20059;-67
2022/08/14 10:44:37;;;;;;;9.45;8.40;;;27.00;99.90;;;;;;5064458;28;20056;-67
2022/08/14 10:47:09;;;;;;;9.50;8.48;;;27.10;99.90;;;;;;5048175;28;20072;-67
2022/08/14 10:49:46;;;;;;;9.73;8.57;;;27.00;99.90;;;;;;5069889;28;20052;-67
2022/08/14 10:52:20;;;;;;;8.75;7.95;;;27.00;99.90;;;;;;5052508;28;20075;-67
2022/08/14 10:54:47;;;;;;;8.38;7.65;;;27.10;99.90;;;;;;5067692;28;20134;-67
2022/08/14 10:57:19;;;;;;;8.80;8.00;;;27.10;99.90;;;;;;5063625;28;20058;-67
2022/08/14 11:00:07;;;;;;;9.10;8.30;;;27.20;99.90;;;;;;5065767;28;20604;-67
2022/08/14 11:02:36;;;;;;;9.57;8.25;;;27.30;99.90;;;;;;5051467;28;20041;-67
2022/08/14 11:05:17;;;;;;;10.15;8.00;;;28.10;97.80;;;;;;5054026;28;20049;-67
2022/08/14 11:07:59;;;;;;;11.23;8.68;;;28.00;98.00;;;;;;5035792;28;20527;-67
2022/08/14 11:10:39;;;;;;;9.32;8.43;;;28.10;97.90;;;;;;5049656;28;20076;-68
2022/08/14 11:13:06;;;;;;;8.90;7.85;;;27.80;98.40;;;;;;5058779;28;20056;-67
2022/08/14 11:15:32;;;;;;;8.90;8.05;;;27.80;98.30;;;;;;5058358;28;20052;-67
2022/08/14 11:17:59;;;;;;;8.00;7.32;;;27.70;97.90;;;;;;5088349;28;20068;-66
2022/08/14 11:20:28;;;;;;;9.00;7.95;;;27.80;97.60;;;;;;5078781;28;20044;-67
2022/08/14 11:22:57;;;;;;;8.75;7.82;;;27.90;97.90;;;;;;5049451;28;20260;-67
2022/08/14 11:25:24;;;;;;;12.63;8.43;;;27.90;98.20;;;;;;5074276;28;20179;-67
2022/08/14 11:27:52;;;;;;;8.55;7.47;;;27.90;98.30;;;;;;5053702;28;20137;-67
2022/08/14 11:30:24;;;;;;;9.10;8.20;;;28.10;97.90;;;;;;5089121;28;20059;-67
2022/08/14 11:32:51;;;;;;;10.77;8.07;;;28.00;97.70;;;;;;5055825;28;20051;-68
2022/08/14 11:35:25;;;;;;;8.73;7.93;;;28.10;97.70;;;;;;5072956;28;20053;-66
2022/08/14 11:38:02;;;;;;;7.55;6.88;;;28.20;97.60;;;;;;5055573;28;20082;-67
2022/08/14 11:40:37;;;;;;;8.48;7.28;;;28.30;97.50;;;;;;5083238;28;20055;-68
2022/08/14 11:43:04;;;;;;;8.82;7.25;;;28.40;97.80;;;;;;5046263;28;20040;-67
2022/08/14 11:45:33;;;;;;;8.40;7.07;;;28.50;96.30;;;;;;5069583;28;20661;-68
2022/08/14 11:48:01;;;;;;;7.93;7.17;;;28.70;96.30;;;;;;5048059;28;20044;-68
2022/08/14 11:50:30;;;;;;;8.02;7.20;;;28.60;96.00;;;;;;5062984;28;20131;-67
2022/08/14 11:52:58;;;;;;;8.95;7.45;;;28.50;96.20;;;;;;5066792;28;20432;-68
2022/08/14 11:55:25;;;;;;;7.88;7.00;;;28.50;96.30;;;;;;5094237;28;20044;-68
2022/08/14 11:58:03;;;;;;;7.78;6.80;;;28.50;96.80;;;;;;5055080;28;20094;-67
2022/08/14 12:00:29;;;;;;;7.60;6.90;;;28.60;97.30;;;;;;5093366;28;20044;-68
2022/08/14 12:02:58;;;;;;;7.65;6.60;;;28.60;96.70;;;;;;5069671;28;20076;-67
2022/08/14 12:05:38;;;;;;;7.75;6.97;;;28.70;96.10;;;;;;5053040;28;20087;-68
2022/08/14 12:08:06;;;;;;;10.25;7.07;;;28.70;96.10;;;;;;5061933;28;20067;-67
2022/08/14 12:10:33;;;;;;;8.02;7.05;;;28.70;95.50;;;;;;5069118;28;20040;-67
2022/08/14 12:13:17;;;;;;;8.15;7.00;;;28.70;95.40;;;;;;5058126;28;20159;-67
2022/08/14 12:15:45;;;;;;;11.40;7.53;;;28.70;95.80;;;;;;5055241;28;20611;-67
2022/08/14 12:18:12;;;;;;;9.80;7.32;;;28.70;95.90;;;;;;5071014;28;20083;-67
2022/08/14 12:20:42;;;;;;;8.88;7.50;;;28.80;96.10;;;;;;5094629;28;20048;-68
2022/08/14 12:23:21;;;;;;;7.10;6.40;;;29.00;95.10;;;;;;5058496;28;20045;-67
2022/08/14 12:25:47;;;;;;;6.97;6.28;;;29.10;94.80;;;;;;5061407;28;20064;-67
2022/08/14 12:28:14;;;;;;;8.32;6.80;;;29.10;94.90;;;;;;5066191;28;20078;-67
2022/08/14 12:30:44;;;;;;;9.25;7.35;;;29.30;95.40;;;;;;5063365;28;20049;-66
2022/08/14 12:33:25;;;;;;;9.35;7.25;;;29.40;95.10;;;;;;5061063;28;20159;-66
2022/08/14 12:35:54;;;;;;;10.20;7.32;;;29.60;94.90;;;;;;5059359;28;20040;-64
2022/08/14 12:38:40;;;;;;;10.35;6.90;;;29.70;94.40;;;;;;5060996;28;20109;-64
2022/08/14 12:41:14;;;;;;;8.57;7.68;;;29.80;94.10;;;;;;5055781;28;20053;-64
2022/08/14 12:43:56;;;;;;;8.52;7.30;;;29.80;94.10;;;;;;5059256;28;20036;-64
2022/08/14 12:46:24;;;;;;;8.73;7.70;;;29.90;94.40;;;;;;5056523;28;20048;-64
2022/08/14 12:48:49;;;;;;;8.98;7.35;;;30.10;94.80;;;;;;5074331;28;20091;-66
2022/08/14 12:51:18;;;;;;;9.15;7.25;;;30.10;94.50;;;;;;5061332;28;20539;-64
2022/08/14 12:53:44;;;;;;;10.57;7.55;;;30.10;94.00;;;;;;5084405;28;20040;-64
2022/08/14 12:56:11;;;;;;;8.23;7.40;;;30.20;93.20;;;;;;5061146;28;20121;-64
2022/08/14 12:58:36;;;;;;;8.73;7.65;;;30.10;93.90;;;;;;5055523;28;20053;-64
2022/08/14 13:01:02;;;;;;;9.88;7.80;;;30.10;93.50;;;;;;5056140;28;20054;-64